Time;durP1;ratioP1;P1;durP2;ratioP2;P2;SDS_P1;SDS_P2;PMS_P1;PMS_P2;Temp;Humidity;BMP_temperature;BMP_pressure;BME280_temperature;BME280_humidity;BME280_pressure;Samples;Min_cycle;Max_cycle;Signal;HPM_P1;HPM_P2
2021/03/21 00:00:59;;;;;;;20.70;15.07;;;;;;;5.95;69.49;100846.16;5035473;28;20090;-59
2021/03/21 00:03:30;;;;;;;20.60;14.85;;;;;;;5.97;69.38;100846.22;5034965;28;20092;-59
2021/03/21 00:06:01;;;;;;;17.80;14.52;;;;;;;5.94;69.13;100839.25;5035173;28;20090;-59
2021/03/21 00:08:33;;;;;;;17.95;14.40;;;;;;;5.95;69.53;100843.59;5033846;28;20034;-59
2021/03/21 00:11:07;;;;;;;19.90;14.57;;;;;;;5.96;69.43;100840.22;5034808;28;20068;-59
2021/03/21 00:13:39;;;;;;;19.93;14.53;;;;;;;5.96;69.52;100837.63;5034925;28;20044;-59
2021/03/21 00:16:11;;;;;;;20.75;14.95;;;;;;;5.95;69.72;100829.03;5017548;28;20037;-59
2021/03/21 00:18:42;;;;;;;23.23;15.93;;;;;;;5.97;69.88;100834.25;5033473;28;20087;-59
2021/03/21 00:21:16;;;;;;;21.65;17.05;;;;;;;5.94;69.41;100829.81;5034741;28;20124;-59
2021/03/21 00:23:48;;;;;;;23.52;16.60;;;;;;;5.94;69.09;100824.69;5030384;28;20041;-59
2021/03/21 00:26:22;;;;;;;18.55;15.70;;;;;;;5.94;69.99;100823.81;5016807;28;20036;-59
2021/03/21 00:28:54;;;;;;;24.15;16.90;;;;;;;5.94;69.85;100821.25;5033326;28;20557;-59
2021/03/21 00:31:26;;;;;;;20.40;17.35;;;;;;;5.95;69.70;100815.28;5034534;28;20516;-59
2021/03/21 00:34:00;;;;;;;26.42;18.23;;;;;;;5.95;69.33;100815.28;5016588;28;20033;-59
2021/03/21 00:36:31;;;;;;;25.83;19.63;;;;;;;5.95;69.97;100821.31;5016820;28;20528;-59
2021/03/21 00:38:59;;;;;;;22.02;17.60;;;;;;;5.95;69.45;100813.59;5016497;28;20045;-59
2021/03/21 00:41:34;;;;;;;23.58;19.30;;;;;;;5.94;69.08;100810.94;5034028;28;20041;-59
2021/03/21 00:44:05;;;;;;;28.33;19.30;;;;;;;5.95;69.20;100802.41;5016401;28;20494;-59
2021/03/21 00:46:33;;;;;;;25.48;19.92;;;;;;;5.95;69.70;100799.84;5016698;28;20103;-60
2021/03/21 00:49:07;;;;;;;26.05;19.42;;;;;;;5.95;69.43;100811.00;5034973;28;20040;-59
2021/03/21 00:51:39;;;;;;;26.10;19.15;;;;;;;5.95;69.74;100807.56;5033342;28;20096;-59
2021/03/21 00:54:05;;;;;;;24.10;17.73;;;;;;;5.95;69.38;100805.84;5032767;28;20409;-59
2021/03/21 00:56:40;;;;;;;23.67;19.10;;;;;;;5.95;69.12;100817.84;5033002;28;20033;-59
2021/03/21 00:59:09;;;;;;;25.30;19.92;;;;;;;5.95;69.42;100818.72;5034049;28;20076;-59
2021/03/21 01:01:40;;;;;;;24.67;20.08;;;;;;;5.94;69.32;100814.38;5015771;28;20144;-59
2021/03/21 01:04:12;;;;;;;22.08;19.13;;;;;;;5.93;69.39;100810.03;5032686;28;20456;-59
2021/03/21 01:06:41;;;;;;;25.88;19.10;;;;;;;5.95;69.55;100815.28;5032831;28;20037;-59
2021/03/21 01:09:16;;;;;;;24.98;18.13;;;;;;;5.94;70.16;100810.94;5032648;28;20064;-59
2021/03/21 01:11:47;;;;;;;22.90;18.73;;;;;;;5.95;69.49;100812.72;5016174;28;20406;-59
2021/03/21 01:14:20;;;;;;;21.75;17.90;;;;;;;5.93;69.75;100804.03;5016464;28;20037;-59
2021/03/21 01:16:54;;;;;;;24.98;18.83;;;;;;;5.95;69.70;100799.84;5033906;28;20071;-59
2021/03/21 01:19:28;;;;;;;27.33;20.73;;;;;;;5.93;69.43;100766.31;5032856;28;20041;-59
2021/03/21 01:22:02;;;;;;;23.90;19.63;;;;;;;5.92;70.01;100745.66;5015833;28;20414;-59
2021/03/21 01:24:33;;;;;;;25.25;19.95;;;;;;;5.92;69.88;100743.97;5016549;28;20045;-59
2021/03/21 01:27:09;;;;;;;26.25;20.00;;;;;;;5.93;69.45;100742.28;5015934;28;20033;-59
2021/03/21 01:29:41;;;;;;;25.75;20.38;;;;;;;5.93;69.42;100750.88;5032779;28;20045;-59
2021/03/21 01:32:14;;;;;;;32.33;22.90;;;;;;;5.94;70.12;100751.78;5032397;28;20033;-59
2021/03/21 01:34:45;;;;;;;26.63;20.35;;;;;;;5.93;69.64;100740.56;5032122;28;20179;-59
2021/03/21 01:37:22;;;;;;;28.75;20.17;;;;;;;5.95;69.91;100743.25;5015669;28;20033;-59
2021/03/21 01:39:53;;;;;;;24.85;19.52;;;;;;;5.95;70.21;100741.53;5015152;28;20036;-59
2021/03/21 01:42:26;;;;;;;26.35;20.90;;;;;;;5.95;70.12;100745.81;5032021;28;20033;-59
2021/03/21 01:44:55;;;;;;;24.77;19.73;;;;;;;5.95;69.94;100740.66;5032088;28;20045;-59
2021/03/21 01:47:41;;;;;;;24.92;19.13;;;;;;;5.93;69.30;100734.56;5031820;28;20047;-59
2021/03/21 01:50:33;;;;;;;26.35;21.27;;;;;;;5.92;70.00;100733.66;5032595;28;20053;-59
2021/03/21 01:53:02;;;;;;;26.13;20.52;;;;;;;5.92;69.97;100732.81;5033169;28;20029;-59
2021/03/21 01:55:33;;;;;;;27.50;20.30;;;;;;;5.91;70.30;100731.94;5031950;28;20049;-60
2021/03/21 01:58:08;;;;;;;27.50;20.17;;;;;;;5.93;70.25;100726.84;5032184;28;20072;-59
2021/03/21 02:00:42;;;;;;;26.05;20.58;;;;;;;5.93;69.86;100724.28;5015403;28;20045;-59
2021/03/21 02:03:19;;;;;;;24.90;20.42;;;;;;;5.92;69.96;100730.22;5031969;28;20091;-59
2021/03/21 02:05:47;;;;;;;23.55;19.80;;;;;;;5.92;70.47;100718.22;5032140;28;20041;-59
2021/03/21 02:08:57;;;;;;;27.73;20.35;;;;;;;5.92;70.06;100715.66;5015487;28;20192;-59
2021/03/21 02:11:36;;;;;;;25.98;19.67;;;;;;;5.92;69.63;100713.09;5000636;28;20425;-59
2021/03/21 02:14:42;;;;;;;23.83;20.00;;;;;;;5.91;70.38;100705.31;5015927;28;20051;-59
2021/03/21 02:17:38;;;;;;;26.63;20.30;;;;;;;5.89;69.83;100707.81;5031728;28;20396;-59
2021/03/21 02:20:13;;;;;;;25.25;19.40;;;;;;;5.88;70.15;100697.44;5031961;28;20034;-59
2021/03/21 02:22:53;;;;;;;25.70;21.48;;;;;;;5.90;70.15;100691.56;5032329;28;20171;-59
2021/03/21 02:26:02;;;;;;;23.58;19.63;;;;;;;5.91;69.82;100687.28;5033350;28;20038;-59
2021/03/21 02:28:49;;;;;;;25.73;21.08;;;;;;;5.91;69.76;100688.19;5015405;28;20502;-59
2021/03/21 02:31:28;;;;;;;23.65;19.25;;;;;;;5.91;70.04;100684.72;5032952;28;20029;-59
2021/03/21 02:34:11;;;;;;;26.83;20.75;;;;;;;5.90;70.09;100683.84;5031917;28;20041;-59
2021/03/21 02:36:58;;;;;;;23.63;19.00;;;;;;;5.90;69.68;100680.38;5015115;28;20391;-59
2021/03/21 02:40:02;;;;;;;23.98;19.10;;;;;;;5.90;70.04;100681.28;5035573;28;20128;-60
2021/03/21 02:42:42;;;;;;;24.10;19.08;;;;;;;5.90;70.50;100675.25;5006349;28;20129;-59
2021/03/21 02:45:29;;;;;;;23.55;19.15;;;;;;;5.89;69.91;100681.19;5036606;28;20041;-59
2021/03/21 02:48:03;;;;;;;22.70;18.27;;;;;;;5.90;70.54;100664.94;5035163;28;20495;-59
2021/03/21 02:50:45;;;;;;;23.10;19.50;;;;;;;5.90;70.34;100667.53;5019206;28;20041;-59
2021/03/21 02:53:35;;;;;;;23.50;18.10;;;;;;;5.90;69.80;100668.41;5018542;28;20051;-59
2021/03/21 02:56:06;;;;;;;24.27;18.48;;;;;;;5.90;70.33;100664.94;5018495;28;20034;-59
2021/03/21 02:58:34;;;;;;;22.60;18.50;;;;;;;5.91;69.89;100661.56;5018510;28;20131;-59
2021/03/21 03:01:16;;;;;;;21.75;18.60;;;;;;;5.90;70.54;100660.69;5018973;28;20040;-59
2021/03/21 03:03:50;;;;;;;21.70;15.95;;;;;;;5.90;70.35;100665.84;5035466;28;20041;-59
2021/03/21 03:06:24;;;;;;;;;;;;;;;5.88;70.55;100652.03;5019204;28;20085;-59
2021/03/21 03:09:00;;;;;;;25.20;17.60;;;;;;;5.90;70.11;100664.94;5034540;28;19917;-59
2021/03/21 03:11:49;;;;;;;20.58;17.10;;;;;;;5.90;70.12;100667.53;5035279;28;20132;-59
2021/03/21 03:14:22;;;;;;;21.58;17.73;;;;;;;5.89;69.93;100656.38;5034678;28;20040;-59
2021/03/21 03:17:01;;;;;;;21.20;17.85;;;;;;;5.89;70.54;100647.75;5034859;28;20483;-59
2021/03/21 03:19:46;;;;;;;23.65;18.20;;;;;;;5.89;70.19;100651.22;5034813;28;20038;-59
2021/03/21 03:22:25;;;;;;;21.63;17.65;;;;;;;5.90;69.92;100649.50;5035951;28;20140;-59
2021/03/21 03:25:19;;;;;;;23.83;17.48;;;;;;;5.89;69.93;100637.47;5034331;28;20036;-59
2021/03/21 03:27:57;;;;;;;20.15;16.30;;;;;;;5.89;70.21;100630.63;5017577;28;20115;-59
2021/03/21 03:30:28;;;;;;;20.58;17.38;;;;;;;5.87;70.56;100639.97;5035672;28;20041;-59
2021/03/21 03:32:59;;;;;;;21.55;16.80;;;;;;;5.88;70.00;100634.03;5017974;28;20183;-59
2021/03/21 03:35:30;;;;;;;19.67;16.40;;;;;;;5.87;70.61;100631.34;5017773;28;20414;-59
2021/03/21 03:38:09;;;;;;;23.92;17.25;;;;;;;5.87;70.71;100632.25;5017621;28;20573;-59
2021/03/21 03:40:42;;;;;;;23.40;18.05;;;;;;;5.87;70.39;100631.34;5017763;28;20112;-59
2021/03/21 03:43:32;;;;;;;22.20;16.85;;;;;;;5.89;69.93;100629.75;5034693;28;20045;-59
2021/03/21 03:46:06;;;;;;;21.52;16.88;;;;;;;5.87;69.99;100627.13;5034384;28;20030;-59
2021/03/21 03:48:45;;;;;;;21.73;16.83;;;;;;;5.87;70.25;100619.41;5034795;28;20128;-59
2021/03/21 03:51:49;;;;;;;21.73;17.73;;;;;;;5.88;70.72;100618.59;5017687;28;20560;-59
2021/03/21 03:54:26;;;;;;;26.40;19.13;;;;;;;5.87;70.67;100616.81;5035196;28;20153;-59
2021/03/21 03:57:03;;;;;;;24.50;18.52;;;;;;;5.86;69.99;100609.00;5035800;28;20280;-59
2021/03/21 03:59:53;;;;;;;23.05;17.05;;;;;;;5.87;70.68;100608.22;5035104;28;20128;-59
2021/03/21 04:02:24;;;;;;;24.00;18.95;;;;;;;5.84;70.74;100603.81;5017775;28;20048;-59
2021/03/21 04:05:03;;;;;;;23.83;19.38;;;;;;;5.86;70.62;100609.00;5017290;28;20034;-59
2021/03/21 04:07:51;;;;;;;23.45;18.17;;;;;;;5.87;70.90;100608.22;5033675;28;20048;-59
2021/03/21 04:10:24;;;;;;;25.15;20.02;;;;;;;5.86;70.36;100607.34;5018001;28;20131;-59
2021/03/21 04:13:04;;;;;;;32.40;20.13;;;;;;;5.85;70.78;100613.28;5017167;28;20544;-59
2021/03/21 04:15:41;;;;;;;26.40;20.27;;;;;;;5.86;70.92;100615.06;5016678;28;20284;-59
2021/03/21 04:18:26;;;;;;;25.90;19.42;;;;;;;5.84;70.65;100614.09;5034948;28;20040;-59
2021/03/21 04:21:30;;;;;;;27.23;21.10;;;;;;;5.84;70.32;100618.38;5033917;28;20033;-59
2021/03/21 04:24:17;;;;;;;26.70;20.45;;;;;;;5.83;70.61;100614.91;5017026;28;20208;-60
2021/03/21 04:26:54;;;;;;;26.17;19.38;;;;;;;5.83;70.72;100611.47;5033461;28;20034;-59
2021/03/21 04:29:39;;;;;;;26.25;19.55;;;;;;;5.84;70.40;100615.81;5017563;28;20056;-59
2021/03/21 04:32:26;;;;;;;25.13;20.08;;;;;;;5.83;70.95;100625.22;5017414;28;20092;-59
2021/03/21 04:35:08;;;;;;;26.75;20.75;;;;;;;5.84;70.61;100631.25;5017046;28;20101;-59
2021/03/21 04:37:43;;;;;;;24.15;19.70;;;;;;;5.84;70.82;100632.13;5034359;28;20039;-59
2021/03/21 04:40:22;;;;;;;26.95;19.77;;;;;;;5.86;70.91;100632.16;5033212;28;20037;-59
2021/03/21 04:43:12;;;;;;;29.15;20.77;;;;;;;5.84;70.51;100632.13;5016913;28;20068;-60
2021/03/21 04:45:56;;;;;;;26.10;19.80;;;;;;;5.86;71.13;100627.03;5034454;28;20128;-59
2021/03/21 04:48:37;;;;;;;25.58;19.92;;;;;;;5.84;70.69;100629.53;5017526;28;20410;-59
2021/03/21 04:51:23;;;;;;;26.63;20.25;;;;;;;5.84;70.83;100632.13;5033189;28;20037;-60
2021/03/21 04:54:09;;;;;;;27.50;20.63;;;;;;;5.84;70.83;100631.25;5033197;28;20477;-59
2021/03/21 04:56:45;;;;;;;30.65;21.90;;;;;;;5.83;70.83;100624.34;5033226;28;20037;-59
2021/03/21 04:59:33;;;;;;;26.80;18.75;;;;;;;5.84;71.02;100620.97;5016109;28;20037;-59
2021/03/21 05:02:16;;;;;;;29.27;21.10;;;;;;;5.85;70.87;100622.69;5029187;28;20132;-59
2021/03/21 05:04:51;;;;;;;25.38;19.30;;;;;;;5.86;71.23;100627.03;5033227;28;20449;-59
2021/03/21 05:07:33;;;;;;;31.77;22.15;;;;;;;5.86;70.99;100621.88;5032762;28;20041;-59
2021/03/21 05:10:38;;;;;;;28.60;20.88;;;;;;;5.86;70.98;100622.78;5016023;28;20404;-60
2021/03/21 05:13:35;;;;;;;27.98;19.55;;;;;;;5.86;70.58;100616.75;5012289;28;20046;-59
2021/03/21 05:16:15;;;;;;;31.65;22.58;;;;;;;5.86;70.96;100621.88;5016344;28;20034;-59
2021/03/21 05:19:05;;;;;;;30.40;21.90;;;;;;;5.87;71.31;100621.06;5032756;28;20483;-59
2021/03/21 05:21:48;;;;;;;30.23;22.25;;;;;;;5.85;71.08;100615.88;5032961;28;20030;-59
2021/03/21 05:24:33;;;;;;;33.72;22.33;;;;;;;5.85;70.92;100604.69;5032546;28;20116;-59
2021/03/21 05:27:26;;;;;;;31.15;21.02;;;;;;;5.84;71.19;100598.66;5016477;28;20037;-59
2021/03/21 05:30:06;;;;;;;34.17;22.17;;;;;;;5.83;70.84;100594.34;5023307;28;20403;-59
2021/03/21 05:32:37;;;;;;;33.80;22.45;;;;;;;5.85;71.06;100590.16;5032436;28;20494;-59
2021/03/21 05:35:17;;;;;;;36.40;23.92;;;;;;;5.85;71.11;100586.66;5032338;28;20538;-60
2021/03/21 05:38:00;;;;;;;33.95;22.33;;;;;;;5.85;71.30;100586.66;5016517;28;20033;-59
2021/03/21 05:40:56;;;;;;;29.75;21.65;;;;;;;5.86;71.65;100594.47;5033245;28;20121;-59
2021/03/21 05:43:59;;;;;;;37.17;24.45;;;;;;;5.85;71.33;100589.25;5032250;28;20063;-60
2021/03/21 05:46:59;;;;;;;36.88;24.20;;;;;;;5.82;70.97;100592.56;5033658;28;20045;-59
2021/03/21 05:49:58;;;;;;;35.97;25.25;;;;;;;5.84;70.94;100597.81;5031988;28;20414;-59
2021/03/21 05:52:37;;;;;;;35.72;24.52;;;;;;;5.85;71.56;100599.53;5032399;28;20037;-59
2021/03/21 05:55:37;;;;;;;41.05;24.73;;;;;;;5.85;70.83;100599.53;5032395;28;20479;-59
2021/03/21 05:58:33;;;;;;;37.38;24.25;;;;;;;5.85;71.06;100590.16;5015507;28;20092;-59
2021/03/21 06:01:13;;;;;;;33.30;23.10;;;;;;;5.85;71.18;100595.28;4992524;28;20137;-59
2021/03/21 06:03:59;;;;;;;37.63;24.77;;;;;;;5.85;71.42;100592.72;5032290;28;20034;-59
2021/03/21 06:07:03;;;;;;;39.80;25.50;;;;;;;5.84;71.64;100579.81;5015563;28;20034;-60
2021/03/21 06:10:07;;;;;;;35.28;24.13;;;;;;;5.86;71.27;100573.91;5032297;28;20132;-59
2021/03/21 06:13:00;;;;;;;38.45;24.60;;;;;;;5.85;71.46;100568.66;5018079;28;20489;-59
2021/03/21 06:15:44;;;;;;;36.00;23.58;;;;;;;5.84;71.17;100564.38;5036892;28;20041;-59
2021/03/21 06:18:31;;;;;;;37.35;24.95;;;;;;;5.84;71.58;100569.50;5036284;28;20033;-59
2021/03/21 06:21:20;;;;;;;35.20;23.50;;;;;;;5.86;71.58;100567.84;5035745;28;20042;-60
2021/03/21 06:24:20;;;;;;;39.78;27.13;;;;;;;5.84;71.54;100564.38;5035245;28;20037;-60
2021/03/21 06:27:08;;;;;;;38.80;24.45;;;;;;;5.83;71.78;100568.63;5037089;28;20041;-59
2021/03/21 06:30:00;;;;;;;37.05;23.52;;;;;;;5.84;71.54;100574.66;5035269;28;20402;-60
2021/03/21 06:32:48;;;;;;;37.72;24.08;;;;;;;5.81;71.65;100572.81;5036582;28;20052;-59
2021/03/21 06:35:23;;;;;;;36.65;24.10;;;;;;;5.82;71.70;100569.41;5037089;28;20033;-59
2021/03/21 06:38:10;;;;;;;40.47;24.52;;;;;;;5.82;72.09;100579.72;5036348;28;20487;-59
2021/03/21 06:40:56;;;;;;;39.22;24.77;;;;;;;5.82;71.56;100584.00;5019537;28;20044;-59
2021/03/21 06:44:10;;;;;;;38.92;25.02;;;;;;;5.83;71.79;100591.75;5019270;28;20090;-59
2021/03/21 06:46:53;;;;;;;35.72;23.50;;;;;;;5.82;71.74;100584.84;4987698;28;20453;-59
2021/03/21 06:49:49;;;;;;;39.25;26.50;;;;;;;5.83;71.30;100590.91;5019159;28;20044;-59
2021/03/21 06:52:38;;;;;;;37.17;24.40;;;;;;;5.83;71.63;100590.91;5035470;28;20072;-59
2021/03/21 06:55:21;;;;;;;36.25;24.30;;;;;;;5.83;71.44;100585.75;5035596;28;20033;-59
2021/03/21 06:58:10;;;;;;;39.40;25.88;;;;;;;5.83;71.80;100596.03;5035340;28;20042;-59
2021/03/21 07:00:44;;;;;;;36.95;24.10;;;;;;;5.82;72.25;100584.84;5035318;28;20119;-59
2021/03/21 07:03:47;;;;;;;39.42;25.33;;;;;;;5.85;71.84;100592.72;5019098;28;20051;-60
2021/03/21 07:06:50;;;;;;;43.85;26.45;;;;;;;5.83;71.64;100585.75;5034622;28;20084;-59
2021/03/21 07:09:56;;;;;;;43.00;25.25;;;;;;;5.82;72.23;100589.13;5035884;28;20525;-59
2021/03/21 07:12:41;;;;;;;43.17;25.27;;;;;;;5.85;72.41;100589.25;5034784;28;20065;-59
2021/03/21 07:15:28;;;;;;;41.65;25.30;;;;;;;5.84;71.85;100590.09;5018327;28;20136;-59
2021/03/21 07:17:54;;;;;;;51.55;27.80;;;;;;;5.84;72.44;100598.66;5034648;28;20454;-59
2021/03/21 07:20:37;;;;;;;41.58;25.10;;;;;;;5.86;72.59;100603.88;5035544;28;20037;-60
2021/03/21 07:23:34;;;;;;;46.20;26.25;;;;;;;5.85;71.93;100607.25;5034870;28;20116;-59
2021/03/21 07:26:19;;;;;;;48.33;28.05;;;;;;;5.87;71.94;100621.06;5034659;28;20402;-60
2021/03/21 07:29:17;;;;;;;45.42;28.05;;;;;;;5.87;72.01;100611.69;5034964;28;20044;-59
2021/03/21 07:32:14;;;;;;;46.53;26.15;;;;;;;5.88;71.92;100618.59;5017585;28;20034;-59
2021/03/21 07:35:32;;;;;;;47.67;27.55;;;;;;;5.89;72.12;100614.31;5017591;28;20065;-59
2021/03/21 07:38:40;;;;;;;44.13;27.30;;;;;;;5.88;72.23;100623.72;4996041;28;20053;-59
2021/03/21 07:41:37;;;;;;;44.58;25.60;;;;;;;5.88;72.58;100627.97;5034302;28;20450;-59
2021/03/21 07:44:18;;;;;;;44.42;27.67;;;;;;;5.90;72.38;100631.50;5035710;28;20041;-59
2021/03/21 07:47:22;;;;;;;45.05;26.75;;;;;;;5.91;72.19;100638.41;5035599;28;20107;-60
2021/03/21 07:50:16;;;;;;;43.28;25.27;;;;;;;5.91;72.55;100646.13;5036114;28;20041;-59
2021/03/21 07:53:11;;;;;;;42.22;25.55;;;;;;;5.91;72.46;100647.03;5034129;28;20038;-59
2021/03/21 07:55:54;;;;;;;42.80;24.27;;;;;;;5.93;72.25;100652.22;5035383;28;20042;-59
2021/03/21 07:59:06;;;;;;;38.13;23.83;;;;;;;5.93;72.40;100660.81;5035652;28;20128;-59
2021/03/21 08:01:34;;;;;;;36.45;23.30;;;;;;;5.93;72.37;100665.97;4938658;29;20043;-60
2021/03/21 08:04:08;;;;;;;37.20;23.98;;;;;;;5.93;72.38;100662.53;4939042;29;20041;-59
2021/03/21 08:06:48;;;;;;;;;;;;;;;5.91;71.88;100667.59;5002645;28;20490;-60
2021/03/21 08:09:21;;;;;;;36.53;22.17;;;;;;;5.91;72.31;100654.75;5017304;28;19971;-59
2021/03/21 08:11:58;;;;;;;31.85;21.88;;;;;;;5.93;73.04;100658.25;5017665;28;20128;-60
2021/03/21 08:14:33;;;;;;;32.83;21.38;;;;;;;5.93;72.00;100649.66;5017741;28;20041;-60
2021/03/21 08:17:18;;;;;;;34.78;21.08;;;;;;;5.92;72.63;100647.91;5033920;28;20029;-59
2021/03/21 08:19:52;;;;;;;31.90;19.58;;;;;;;5.92;72.07;100661.63;5033698;28;20084;-59
2021/03/21 08:22:29;;;;;;;31.35;19.15;;;;;;;5.92;72.27;100671.91;5016867;28;20026;-61
2021/03/21 08:25:26;;;;;;;29.38;18.98;;;;;;;5.92;72.65;100671.06;5017264;28;20494;-60
2021/03/21 08:27:53;;;;;;;29.05;18.75;;;;;;;5.93;72.46;100672.81;5017175;28;20037;-59
2021/03/21 08:30:26;;;;;;;29.95;17.67;;;;;;;5.94;72.77;100672.00;5034512;28;20037;-59
2021/03/21 08:33:03;;;;;;;29.10;19.75;;;;;;;5.93;72.46;100675.38;5034712;28;20033;-60
2021/03/21 08:35:37;;;;;;;28.67;18.00;;;;;;;5.94;72.59;100682.28;5034423;28;20037;-60
2021/03/21 08:38:20;;;;;;;25.83;15.23;;;;;;;5.93;72.38;100678.81;5033523;28;20037;-59
2021/03/21 08:40:59;;;;;;;28.85;17.90;;;;;;;5.95;72.34;100674.63;5016690;28;20096;-59
2021/03/21 08:43:40;;;;;;;30.00;16.80;;;;;;;5.95;72.48;100679.78;5016688;28;20033;-60
2021/03/21 08:46:15;;;;;;;24.45;16.00;;;;;;;5.95;72.98;100676.34;5016832;28;20037;-59
2021/03/21 08:48:47;;;;;;;27.20;16.67;;;;;;;5.95;72.34;100674.63;5016783;28;20034;-59
2021/03/21 08:51:16;;;;;;;22.85;13.85;;;;;;;5.95;72.22;100668.63;5016779;28;20147;-59
2021/03/21 08:53:57;;;;;;;22.60;12.75;;;;;;;5.95;72.73;100666.91;5033063;28;20033;-59
2021/03/21 08:56:58;;;;;;;22.83;12.65;;;;;;;5.93;71.93;100673.69;5016890;28;20037;-59
2021/03/21 08:59:31;;;;;;;16.33;10.90;;;;;;;5.95;72.02;100663.47;5034067;28;20064;-59
2021/03/21 09:02:02;;;;;;;17.20;11.50;;;;;;;5.94;72.30;100659.13;5016018;28;20105;-59
2021/03/21 09:04:37;;;;;;;17.40;11.77;;;;;;;5.95;71.95;100660.91;5034332;28;20033;-59
2021/03/21 09:07:16;;;;;;;;;;;;;;;5.93;72.33;100659.94;5034139;28;20033;-59
2021/03/21 09:10:10;;;;;;;19.42;11.00;;;;;;;5.92;71.92;100656.47;5033827;28;19917;-59
2021/03/21 09:12:38;;;;;;;19.90;9.52;;;;;;;5.93;72.26;100659.94;5033929;28;20038;-60
2021/03/21 09:15:22;;;;;;;16.02;10.60;;;;;;;5.93;72.64;100662.53;5033010;28;20067;-60
2021/03/21 09:18:23;;;;;;;19.17;10.23;;;;;;;5.93;72.52;100653.09;5032446;28;20132;-59
2021/03/21 09:21:17;;;;;;;16.27;9.45;;;;;;;5.93;72.81;100663.38;5032027;28;20072;-60
2021/03/21 09:23:50;;;;;;;12.35;8.10;;;;;;;5.94;72.67;100674.56;5016026;28;20124;-59
2021/03/21 09:26:15;;;;;;;13.75;8.68;;;;;;;5.97;72.45;100673.81;5015977;28;20037;-59
2021/03/21 09:28:50;;;;;;;13.80;8.80;;;;;;;5.98;72.81;100683.31;5032741;28;20040;-59
2021/03/21 09:31:17;;;;;;;12.68;8.20;;;;;;;5.98;72.91;100678.16;5033635;28;20049;-59
2021/03/21 09:33:58;;;;;;;13.20;7.35;;;;;;;5.98;72.67;100685.88;5015578;28;20048;-60
2021/03/21 09:36:42;;;;;;;12.45;7.97;;;;;;;5.99;72.51;100701.41;5032222;28;20037;-60
2021/03/21 09:39:24;;;;;;;11.88;8.30;;;;;;;5.99;72.54;100696.25;5016090;28;20120;-59
2021/03/21 09:41:53;;;;;;;14.68;7.93;;;;;;;5.99;71.97;100698.84;5032317;28;20044;-60
2021/03/21 09:44:41;;;;;;;12.60;6.50;;;;;;;5.98;72.22;100689.34;5033445;28;20037;-60
2021/03/21 09:47:16;;;;;;;12.00;6.80;;;;;;;5.98;72.36;100686.78;5015192;28;20045;-60
2021/03/21 09:50:13;;;;;;;15.00;7.50;;;;;;;5.98;72.65;100684.19;5033224;28;20498;-59
2021/03/21 09:52:55;;;;;;;9.30;6.50;;;;;;;5.98;72.58;100685.88;5032223;28;20038;-59
2021/03/21 09:55:26;;;;;;;14.20;6.53;;;;;;;5.98;72.17;100681.63;5015931;28;20046;-59
2021/03/21 09:58:13;;;;;;;11.65;6.30;;;;;;;5.97;72.31;100685.00;5032828;28;20041;-60
2021/03/21 10:00:42;;;;;;;7.25;5.15;;;;;;;5.98;72.27;100678.16;5032677;28;20025;-60
2021/03/21 10:03:27;;;;;;;11.40;5.60;;;;;;;5.99;72.12;100688.53;5033434;28;20517;-60
2021/03/21 10:06:12;;;;;;;12.00;6.78;;;;;;;5.99;72.09;100688.53;5031797;28;20026;-59
2021/03/21 10:08:49;;;;;;;9.10;4.93;;;;;;;6.00;72.28;100685.16;5015841;28;20052;-59
2021/03/21 10:11:45;;;;;;;10.15;5.30;;;;;;;5.99;72.85;100693.69;5032054;28;20044;-60
2021/03/21 10:14:23;;;;;;;8.70;4.78;;;;;;;6.00;72.27;100689.44;5013161;28;20136;-60
2021/03/21 10:16:55;;;;;;;11.57;5.32;;;;;;;6.00;72.36;100694.59;5031902;28;20120;-59
2021/03/21 10:20:04;;;;;;;8.02;4.95;;;;;;;6.00;72.13;100697.16;5032600;28;20411;-60
2021/03/21 10:22:31;;;;;;;10.10;4.22;;;;;;;6.01;72.64;100696.34;5032796;28;20057;-59
2021/03/21 10:25:23;;;;;;;9.32;5.28;;;;;;;6.00;72.03;100700.59;5033296;28;20052;-59
2021/03/21 10:27:51;;;;;;;8.52;4.93;;;;;;;6.01;72.53;100699.78;5014963;28;20053;-60
2021/03/21 10:30:27;;;;;;;9.70;4.68;;;;;;;6.01;72.17;100694.63;5015301;28;20525;-59
2021/03/21 10:32:59;;;;;;;10.27;5.10;;;;;;;6.01;72.40;100702.38;5015192;28;20046;-59
2021/03/21 10:35:27;;;;;;;10.35;4.60;;;;;;;6.03;72.05;100705.03;5032966;28;20029;-59
2021/03/21 10:38:05;;;;;;;9.45;4.50;;;;;;;6.02;72.77;100692.97;5015729;28;20477;-59
2021/03/21 10:40:31;;;;;;;11.30;4.30;;;;;;;6.03;72.32;100692.16;5014978;28;20037;-60
2021/03/21 10:43:21;;;;;;;14.90;5.63;;;;;;;6.02;72.65;100693.84;5031733;28;20050;-60
2021/03/21 10:45:54;;;;;;;6.72;4.30;;;;;;;6.03;72.90;100700.75;5032692;28;20410;-59
2021/03/21 10:48:22;;;;;;;9.63;4.43;;;;;;;6.03;72.14;100699.88;5015044;28;20041;-59
2021/03/21 10:51:08;;;;;;;11.30;4.70;;;;;;;6.04;72.36;100705.06;5015233;28;20038;-60
2021/03/21 10:53:42;;;;;;;7.07;3.83;;;;;;;6.04;72.76;100705.06;5031730;28;20046;-60
2021/03/21 10:56:22;;;;;;;13.20;4.38;;;;;;;6.04;72.22;100710.22;5032844;28;20030;-59
2021/03/21 10:59:22;;;;;;;10.70;4.50;;;;;;;6.05;72.83;100701.69;5032262;28;20041;-59
2021/03/21 11:02:17;;;;;;;8.48;3.95;;;;;;;6.05;72.41;100700.84;5018943;28;20099;-59
2021/03/21 11:04:58;;;;;;;12.43;4.97;;;;;;;6.04;72.30;100705.06;5018377;28;20407;-59
2021/03/21 11:07:40;;;;;;;9.20;4.72;;;;;;;6.04;72.92;100688.78;5035131;28;20037;-61
2021/03/21 11:10:14;;;;;;;11.90;4.38;;;;;;;6.04;72.57;100694.78;5018672;28;20047;-60
2021/03/21 11:12:43;;;;;;;9.25;4.20;;;;;;;6.05;72.03;100696.56;5036258;28;20025;-59
2021/03/21 11:15:27;;;;;;;7.10;4.00;;;;;;;6.06;72.12;100694.88;5036217;28;20045;-59
2021/03/21 11:18:24;;;;;;;9.82;3.83;;;;;;;6.06;72.22;100698.31;5036040;28;20073;-60
2021/03/21 11:21:12;;;;;;;8.07;3.85;;;;;;;6.07;72.77;100699.22;5008731;28;20499;-59
2021/03/21 11:24:03;;;;;;;13.00;3.90;;;;;;;6.06;72.04;100703.47;5017873;28;20033;-59
2021/03/21 11:26:37;;;;;;;8.70;3.85;;;;;;;6.06;72.36;100697.44;5017836;28;20506;-60
2021/03/21 11:29:29;;;;;;;7.50;3.78;;;;;;;6.07;72.51;100704.34;5034564;28;20083;-60
2021/03/21 11:32:13;;;;;;;8.40;3.95;;;;;;;6.07;72.27;100696.63;5018309;28;20063;-59
2021/03/21 11:35:07;;;;;;;13.30;4.20;;;;;;;6.08;72.50;100699.25;5018281;28;20040;-60
2021/03/21 11:37:40;;;;;;;10.63;4.50;;;;;;;6.09;72.41;100692.41;5035938;28;20095;-60
2021/03/21 11:40:21;;;;;;;11.15;4.22;;;;;;;6.10;72.39;100686.44;5035606;28;20069;-59
2021/03/21 11:42:50;;;;;;;7.40;3.83;;;;;;;6.11;72.41;100685.66;5017828;28;20046;-59
2021/03/21 11:45:27;;;;;;;9.25;3.70;;;;;;;6.11;72.28;100685.66;5034344;28;20065;-60
2021/03/21 11:48:09;;;;;;;9.13;4.05;;;;;;;6.12;72.55;100684.84;5034581;28;20052;-59
2021/03/21 11:50:39;;;;;;;8.82;4.57;;;;;;;6.12;72.11;100677.09;5034396;28;20045;-59
2021/03/21 11:53:16;;;;;;;12.15;3.90;;;;;;;6.12;72.73;100682.25;5034563;28;20045;-59
2021/03/21 11:55:55;;;;;;;6.53;3.55;;;;;;;6.11;72.12;100677.06;5034252;28;20029;-60
2021/03/21 11:58:29;;;;;;;11.38;4.10;;;;;;;6.10;72.97;100676.16;5034475;28;20040;-59
2021/03/21 12:01:04;;;;;;;9.80;3.95;;;;;;;6.11;72.01;100685.66;5035414;28;20034;-59
2021/03/21 12:03:47;;;;;;;8.95;4.47;;;;;;;6.12;72.83;100678.81;5035082;28;20068;-59
2021/03/21 12:06:41;;;;;;;7.97;4.07;;;;;;;6.12;71.98;100682.25;5033999;28;20083;-60
2021/03/21 12:09:20;;;;;;;10.57;3.90;;;;;;;6.12;72.42;100679.69;5017003;28;20038;-59
2021/03/21 12:11:54;;;;;;;9.98;3.70;;;;;;;6.14;72.38;100675.50;5033543;28;20073;-60
2021/03/21 12:14:34;;;;;;;18.02;5.50;;;;;;;6.14;72.02;100670.34;5035047;28;20037;-60
2021/03/21 12:17:39;;;;;;;5.88;3.53;;;;;;;6.14;72.43;100656.59;5033469;28;20088;-59
2021/03/21 12:20:29;;;;;;;10.23;4.13;;;;;;;6.14;72.32;100662.63;5033428;28;20037;-59
2021/03/21 12:22:55;;;;;;;9.50;4.00;;;;;;;6.16;72.18;100654.94;5034345;28;20030;-59
2021/03/21 12:25:30;;;;;;;10.98;4.50;;;;;;;6.16;72.48;100668.72;5034496;28;20133;-59
2021/03/21 12:28:22;;;;;;;10.68;3.67;;;;;;;6.15;72.39;100672.09;5017230;28;20505;-59